Time;durP1;ratioP1;P1;durP2;ratioP2;P2;SDS_P1;SDS_P2;PMS_P1;PMS_P2;Temp;Humidity;BMP_temperature;BMP_pressure;BME280_temperature;BME280_humidity;BME280_pressure;Samples;Min_cycle;Max_cycle;Signal;HPM_P1;HPM_P2
2022/11/11 00:00:25;;;;;;;8.27;4.32;;;;;;;;;;4942904;28;20392;-87
2022/11/11 00:02:54;;;;;;;7.05;4.63;;;;;;;;;;4958128;28;20038;-87
2022/11/11 00:05:20;;;;;;;7.15;4.32;;;;;;;;;;4957093;28;20038;-88
2022/11/11 00:07:46;;;;;;;9.38;4.80;;;;;;;;;;4960813;28;21324;-87
2022/11/11 00:10:12;;;;;;;8.32;4.80;;;;;;;;;;4948670;28;20110;-87
2022/11/11 00:12:37;;;;;;;8.93;5.03;;;;;;;;;;4948024;29;20047;-87
2022/11/11 00:15:03;;;;;;;9.93;5.28;;;;;;;;;;4946815;28;20059;-88
2022/11/11 00:25:41;;;;;;;11.60;5.57;;;;;;;;;;4950179;28;20467;-87
2022/11/11 00:28:06;;;;;;;9.38;5.40;;;;;;;;;;4960910;28;20062;-87
2022/11/11 00:30:32;;;;;;;10.70;5.75;;;;;;;;;;4946656;28;20046;-87
2022/11/11 00:32:57;;;;;;;9.07;5.20;;;;;;;;;;4950313;28;20031;-87
2022/11/11 00:40:56;;;;;;;10.57;5.78;;;;;;;;;;4947853;28;20046;-88
2022/11/11 00:43:21;;;;;;;11.70;7.05;;;;;;;;;;4962318;28;20035;-87
2022/11/11 00:45:47;;;;;;;10.45;5.70;;;;;;;;;;4951861;28;20027;-88
2022/11/11 00:50:59;;;;;;;10.32;6.60;;;;;;;;;;4950178;28;20041;-88
2022/11/11 00:53:27;;;;;;;11.15;6.85;;;;;;;;;;4951635;28;20031;-86
2022/11/11 00:55:53;;;;;;;11.55;6.90;;;;;;;;;;4954192;28;20043;-88
2022/11/11 00:58:19;;;;;;;12.98;7.13;;;;;;;;;;4950364;28;20031;-86
2022/11/11 01:00:44;;;;;;;11.05;6.57;;;;;;;;;;4943628;28;20039;-88
2022/11/11 01:03:10;;;;;;;10.27;6.97;;;;;;;;;;4944495;28;20031;-87
2022/11/11 01:05:38;;;;;;;12.13;7.63;;;;;;;;;;4945325;28;20039;-87
2022/11/11 01:08:04;;;;;;;14.15;7.47;;;;;;;;;;4943736;28;20027;-88
2022/11/11 01:10:40;;;;;;;12.40;7.43;;;;;;;;;;4940437;28;20042;-88
2022/11/11 01:13:29;;;;;;;10.57;7.22;;;;;;;;;;4945444;28;20078;-87
2022/11/11 01:16:04;;;;;;;11.43;7.05;;;;;;;;;;4961571;28;20023;-88
2022/11/11 01:18:30;;;;;;;12.98;8.15;;;;;;;;;;4962924;28;20039;-88
2022/11/11 01:21:08;;;;;;;11.18;7.47;;;;;;;;;;4940945;28;20023;-88
2022/11/11 01:23:36;;;;;;;12.45;7.40;;;;;;;;;;4946457;28;20035;-87
2022/11/11 01:26:03;;;;;;;11.70;7.28;;;;;;;;;;4946510;28;20451;-87
2022/11/11 01:28:30;;;;;;;13.35;7.82;;;;;;;;;;4951426;28;20622;-86
2022/11/11 01:31:03;;;;;;;12.68;8.25;;;;;;;;;;4959206;28;20043;-87
2022/11/11 01:33:29;;;;;;;14.85;8.60;;;;;;;;;;4949818;28;20035;-85
2022/11/11 01:35:54;;;;;;;11.15;7.47;;;;;;;;;;4948541;28;20031;-88
2022/11/11 01:38:20;;;;;;;14.63;8.20;;;;;;;;;;4943723;28;20131;-88
2022/11/11 01:40:48;;;;;;;11.15;7.57;;;;;;;;;;4957303;28;20046;-87
2022/11/11 01:43:20;;;;;;;11.32;7.43;;;;;;;;;;4952354;28;20023;-88
2022/11/11 01:45:59;;;;;;;12.63;7.67;;;;;;;;;;4962081;28;20055;-86
2022/11/11 01:51:33;;;;;;;12.35;7.70;;;;;;;;;;4954230;28;20062;-87
2022/11/11 01:54:05;;;;;;;13.35;7.47;;;;;;;;;;4953977;28;20143;-88
2022/11/11 01:56:30;;;;;;;14.93;8.05;;;;;;;;;;4967034;28;20158;-88
2022/11/11 01:58:59;;;;;;;13.38;8.02;;;;;;;;;;4954784;28;20117;-88
2022/11/11 02:01:25;;;;;;;10.65;7.57;;;;;;;;;;4951128;29;20019;-87
2022/11/11 02:06:38;;;;;;;11.68;7.57;;;;;;;;;;4948579;28;20035;-88
2022/11/11 02:09:05;;;;;;;12.07;7.72;;;;;;;;;;4964629;28;20447;-88
2022/11/11 02:14:42;;;;;;;;;;;;;;;;;;4949230;29;20058;-87
2022/11/11 02:17:13;;;;;;;10.90;6.13;;;;;;;;;;4946407;29;19915;-89
2022/11/11 02:19:56;;;;;;;13.02;6.70;;;;;;;;;;4970315;28;20419;-88
2022/11/11 02:22:40;;;;;;;12.63;7.05;;;;;;;;;;4963124;28;20128;-88
2022/11/11 02:25:08;;;;;;;11.13;7.47;;;;;;;;;;4948379;28;20106;-88
2022/11/11 02:27:37;;;;;;;13.93;6.97;;;;;;;;;;4948953;28;20035;-86
2022/11/11 02:30:05;;;;;;;13.18;7.10;;;;;;;;;;4951134;29;20470;-88
2022/11/11 02:32:31;;;;;;;11.85;7.00;;;;;;;;;;4950374;29;20483;-86
2022/11/11 02:34:56;;;;;;;12.93;7.45;;;;;;;;;;4952260;28;20023;-89
2022/11/11 02:37:24;;;;;;;12.10;7.55;;;;;;;;;;4944576;28;20070;-87
2022/11/11 02:39:53;;;;;;;15.75;7.60;;;;;;;;;;4952115;28;20035;-88
2022/11/11 02:42:20;;;;;;;11.02;7.15;;;;;;;;;;4957545;28;20034;-87
2022/11/11 02:44:45;;;;;;;11.55;6.75;;;;;;;;;;4944451;28;20395;-86
2022/11/11 02:47:11;;;;;;;10.43;6.88;;;;;;;;;;4961009;28;20031;-87
2022/11/11 02:49:36;;;;;;;10.93;6.82;;;;;;;;;;4947517;28;20034;-88
2022/11/11 02:52:01;;;;;;;11.80;6.85;;;;;;;;;;4948424;28;20466;-88
2022/11/11 02:54:27;;;;;;;12.98;6.65;;;;;;;;;;4965311;28;20828;-86
2022/11/11 02:57:07;;;;;;;10.63;6.70;;;;;;;;;;4950625;28;20031;-87
2022/11/11 02:59:38;;;;;;;10.13;6.63;;;;;;;;;;4942778;28;20046;-87
2022/11/11 03:02:06;;;;;;;11.35;6.32;;;;;;;;;;4943210;28;20094;-85
2022/11/11 03:04:32;;;;;;;10.40;6.15;;;;;;;;;;4948114;28;20088;-88
2022/11/11 03:06:57;;;;;;;10.48;6.38;;;;;;;;;;4950739;28;20172;-88
2022/11/11 03:09:23;;;;;;;10.57;6.00;;;;;;;;;;4949268;28;20042;-89
2022/11/11 03:11:48;;;;;;;11.10;7.18;;;;;;;;;;4949053;29;20089;-88
2022/11/11 03:14:14;;;;;;;10.05;6.32;;;;;;;;;;4946946;28;20086;-88
2022/11/11 03:19:23;;;;;;;11.73;5.95;;;;;;;;;;4950939;28;20037;-89
2022/11/11 03:21:48;;;;;;;11.35;6.63;;;;;;;;;;4951953;29;20031;-86
2022/11/11 03:24:14;;;;;;;13.40;6.15;;;;;;;;;;4948935;28;20035;-88
2022/11/11 03:26:39;;;;;;;13.00;5.93;;;;;;;;;;4952880;28;20073;-86
2022/11/11 03:29:04;;;;;;;7.97;5.75;;;;;;;;;;4951755;28;20034;-87
2022/11/11 03:31:30;;;;;;;9.77;5.72;;;;;;;;;;4948957;28;20027;-88
2022/11/11 03:34:16;;;;;;;7.93;5.47;;;;;;;;;;4952433;28;20058;-88
2022/11/11 03:39:25;;;;;;;11.55;6.10;;;;;;;;;;4951610;28;20042;-87
2022/11/11 03:41:50;;;;;;;11.60;6.47;;;;;;;;;;4949992;28;20031;-87
2022/11/11 03:44:15;;;;;;;12.18;6.03;;;;;;;;;;4947674;28;20039;-87
2022/11/11 03:46:41;;;;;;;11.65;6.05;;;;;;;;;;4949847;29;20054;-89
2022/11/11 03:49:06;;;;;;;11.95;6.07;;;;;;;;;;4949666;28;20042;-88
2022/11/11 03:51:32;;;;;;;11.07;6.22;;;;;;;;;;4950219;28;20390;-88
2022/11/11 03:53:57;;;;;;;11.32;6.53;;;;;;;;;;4950789;28;20031;-88
2022/11/11 03:56:22;;;;;;;9.75;6.22;;;;;;;;;;4948628;28;20062;-88
2022/11/11 03:58:48;;;;;;;9.82;5.70;;;;;;;;;;4949099;28;20035;-89
2022/11/11 04:10:21;;;;;;;10.10;6.18;;;;;;;;;;4946529;28;20031;-88
2022/11/11 04:12:10;;;;;;;11.65;5.95;;;;;;;;;;4946562;28;20093;-87
2022/11/11 04:17:19;;;;;;;11.50;5.85;;;;;;;;;;4945793;28;20046;-88
2022/11/11 04:22:29;;;;;;;8.93;5.75;;;;;;;;;;4947153;28;20054;-87
2022/11/11 04:27:38;;;;;;;11.93;6.38;;;;;;;;;;4947488;28;20038;-87
2022/11/11 04:30:04;;;;;;;10.93;6.38;;;;;;;;;;4948243;28;20684;-86
2022/11/11 04:32:37;;;;;;;10.25;6.00;;;;;;;;;;4947741;28;20031;-85
2022/11/11 04:35:12;;;;;;;;;;;;;;;;;;4947832;28;20035;-87
2022/11/11 04:41:02;;;;;;;8.82;6.00;;;;;;;;;;4945067;28;19914;-87
2022/11/11 04:43:20;;;;;;;9.82;5.90;;;;;;;;;;4950625;28;20073;-87
2022/11/11 04:45:46;;;;;;;11.15;5.47;;;;;;;;;;4948250;28;20432;-88
2022/11/11 04:48:12;;;;;;;11.90;5.85;;;;;;;;;;4950195;29;20023;-87
2022/11/11 04:50:42;;;;;;;8.90;4.80;;;;;;;;;;4947334;28;20515;-88
2022/11/11 04:53:11;;;;;;;10.02;5.70;;;;;;;;;;4949774;28;20109;-88
2022/11/11 04:58:26;;;;;;;10.27;5.45;;;;;;;;;;4947945;28;20043;-87
2022/11/11 05:00:51;;;;;;;11.40;6.43;;;;;;;;;;4949103;28;20431;-88
2022/11/11 05:03:20;;;;;;;10.57;5.80;;;;;;;;;;4947315;28;20035;-86
2022/11/11 05:09:00;;;;;;;10.27;5.53;;;;;;;;;;4948101;28;20050;-88
2022/11/11 05:11:29;;;;;;;10.68;5.47;;;;;;;;;;4944926;28;20055;-88
2022/11/11 05:22:17;;;;;;;10.68;5.18;;;;;;;;;;4947271;28;20045;-86
2022/11/11 05:27:26;;;;;;;10.45;5.53;;;;;;;;;;4940899;28;20054;-87
2022/11/11 05:29:52;;;;;;;8.38;4.93;;;;;;;;;;4950749;28;20027;-86
2022/11/11 05:32:22;;;;;;;9.02;5.55;;;;;;;;;;4948647;28;20086;-87
2022/11/11 05:34:48;;;;;;;10.98;5.72;;;;;;;;;;4946832;28;20035;-88
2022/11/11 05:37:14;;;;;;;9.20;5.18;;;;;;;;;;4945621;28;20078;-87
2022/11/11 05:39:40;;;;;;;10.35;5.70;;;;;;;;;;4951713;28;20477;-87
2022/11/11 05:42:06;;;;;;;12.18;5.93;;;;;;;;;;4951789;28;20106;-86
2022/11/11 05:44:31;;;;;;;9.57;5.43;;;;;;;;;;4949648;28;20090;-88
2022/11/11 05:47:14;;;;;;;9.05;5.90;;;;;;;;;;4947549;28;20035;-87
2022/11/11 05:49:39;;;;;;;10.55;5.80;;;;;;;;;;4951105;28;20772;-87
2022/11/11 05:52:06;;;;;;;12.13;6.68;;;;;;;;;;4948036;28;20047;-87
2022/11/11 05:54:32;;;;;;;11.95;5.95;;;;;;;;;;4947361;28;20027;-86
2022/11/11 05:56:57;;;;;;;10.38;6.15;;;;;;;;;;4949605;28;20110;-87
2022/11/11 05:59:23;;;;;;;10.02;5.70;;;;;;;;;;4947282;28;20023;-85
2022/11/11 06:01:48;;;;;;;9.73;5.60;;;;;;;;;;4955159;28;20050;-87
2022/11/11 06:04:14;;;;;;;10.57;6.15;;;;;;;;;;4942560;28;20035;-86
2022/11/11 06:06:39;;;;;;;12.02;6.18;;;;;;;;;;4946796;28;20573;-87
2022/11/11 06:09:10;;;;;;;11.45;5.85;;;;;;;;;;4951405;28;20046;-89
2022/11/11 06:11:36;;;;;;;11.65;5.85;;;;;;;;;;4961289;28;20106;-88
2022/11/11 06:14:01;;;;;;;9.70;5.90;;;;;;;;;;4936350;28;20175;-86
2022/11/11 06:16:27;;;;;;;10.77;6.10;;;;;;;;;;4948958;28;20062;-87
2022/11/11 06:18:52;;;;;;;9.80;5.68;;;;;;;;;;4947918;28;20504;-87
2022/11/11 06:21:18;;;;;;;9.50;5.93;;;;;;;;;;4946107;28;20027;-87
2022/11/11 06:23:43;;;;;;;8.85;5.55;;;;;;;;;;4949092;28;20063;-87
2022/11/11 06:26:13;;;;;;;11.02;5.88;;;;;;;;;;4953564;28;20031;-87
2022/11/11 06:28:46;;;;;;;11.70;5.95;;;;;;;;;;4945652;28;20077;-88
2022/11/11 06:31:14;;;;;;;11.75;5.40;;;;;;;;;;4939364;28;20065;-85
2022/11/11 06:33:40;;;;;;;9.90;6.07;;;;;;;;;;4943848;28;20042;-87
2022/11/11 06:36:07;;;;;;;8.70;5.55;;;;;;;;;;4944401;28;20522;-86
2022/11/11 06:38:33;;;;;;;11.50;5.88;;;;;;;;;;4960473;28;20046;-87
2022/11/11 06:40:58;;;;;;;9.65;5.45;;;;;;;;;;4953694;28;20031;-87
2022/11/11 06:43:24;;;;;;;11.55;5.53;;;;;;;;;;4944515;28;20063;-88
2022/11/11 06:45:54;;;;;;;11.98;5.88;;;;;;;;;;4948502;28;20058;-87
2022/11/11 06:48:20;;;;;;;9.90;5.38;;;;;;;;;;4941275;28;20086;-89
2022/11/11 06:50:46;;;;;;;13.18;6.22;;;;;;;;;;4963134;28;20126;-87
2022/11/11 06:53:14;;;;;;;8.77;5.85;;;;;;;;;;4952363;28;20118;-89
2022/11/11 06:55:40;;;;;;;12.00;5.82;;;;;;;;;;4952686;28;20130;-82
2022/11/11 06:58:15;;;;;;;9.13;5.30;;;;;;;;;;4952263;29;20114;-83
2022/11/11 07:00:41;;;;;;;10.57;6.30;;;;;;;;;;4967513;28;20081;-83
2022/11/11 07:03:08;;;;;;;10.15;5.63;;;;;;;;;;4948031;28;20106;-82
2022/11/11 07:05:34;;;;;;;8.70;5.10;;;;;;;;;;4949632;28;20620;-83
2022/11/11 07:08:08;;;;;;;8.35;5.28;;;;;;;;;;4951259;29;20470;-84
2022/11/11 07:10:36;;;;;;;10.40;6.05;;;;;;;;;;4958703;28;20125;-82
2022/11/11 07:13:02;;;;;;;7.82;5.47;;;;;;;;;;4950241;28;20120;-83
2022/11/11 07:15:28;;;;;;;9.57;5.53;;;;;;;;;;4945198;28;20051;-82
2022/11/11 07:17:53;;;;;;;12.80;5.85;;;;;;;;;;4950270;29;20117;-83
2022/11/11 07:20:19;;;;;;;9.82;5.53;;;;;;;;;;4947384;28;20117;-83
2022/11/11 07:23:01;;;;;;;12.88;5.35;;;;;;;;;;4964778;28;20035;-83
2022/11/11 07:25:26;;;;;;;11.15;6.30;;;;;;;;;;4964084;28;20031;-82
2022/11/11 07:27:52;;;;;;;11.05;5.78;;;;;;;;;;4948891;28;20049;-82
2022/11/11 07:30:18;;;;;;;9.68;5.75;;;;;;;;;;4947881;28;20110;-82
2022/11/11 07:32:48;;;;;;;9.00;5.28;;;;;;;;;;4943588;28;20475;-82
2022/11/11 07:35:15;;;;;;;10.77;6.43;;;;;;;;;;4960265;28;21044;-84
2022/11/11 07:37:41;;;;;;;9.20;5.55;;;;;;;;;;4950435;28;20046;-82
2022/11/11 07:40:07;;;;;;;9.32;5.75;;;;;;;;;;4948939;28;20389;-83
2022/11/11 07:42:39;;;;;;;10.80;5.95;;;;;;;;;;4953595;28;20551;-83
2022/11/11 07:45:07;;;;;;;10.50;6.23;;;;;;;;;;4940036;29;20490;-82
2022/11/11 07:47:33;;;;;;;8.77;5.80;;;;;;;;;;4950568;28;20789;-82
2022/11/11 07:49:59;;;;;;;9.32;6.18;;;;;;;;;;4954037;28;20042;-82
2022/11/11 07:52:24;;;;;;;9.73;5.53;;;;;;;;;;4951322;28;20023;-82
2022/11/11 07:54:50;;;;;;;7.63;4.68;;;;;;;;;;4952489;29;20035;-82
2022/11/11 07:57:15;;;;;;;10.20;5.93;;;;;;;;;;4969418;28;20135;-82
2022/11/11 07:59:41;;;;;;;7.88;5.70;;;;;;;;;;4967801;28;20035;-82
2022/11/11 08:02:10;;;;;;;11.60;5.72;;;;;;;;;;4953604;29;20038;-82
2022/11/11 08:04:36;;;;;;;9.88;5.60;;;;;;;;;;4952552;28;20034;-81
2022/11/11 08:07:01;;;;;;;9.43;5.70;;;;;;;;;;4952042;28;20027;-82
2022/11/11 08:09:27;;;;;;;7.85;5.13;;;;;;;;;;4948077;28;20110;-83
2022/11/11 08:14:36;;;;;;;8.63;5.40;;;;;;;;;;4945217;29;20515;-83
2022/11/11 08:17:01;;;;;;;8.70;4.68;;;;;;;;;;4949475;28;20035;-82
2022/11/11 08:19:27;;;;;;;11.88;5.15;;;;;;;;;;4952049;28;20097;-82
2022/11/11 08:21:52;;;;;;;9.10;5.80;;;;;;;;;;4953421;28;20027;-82
2022/11/11 08:24:18;;;;;;;11.52;6.10;;;;;;;;;;4952477;28;20506;-82
2022/11/11 08:26:44;;;;;;;8.82;5.10;;;;;;;;;;4951251;28;20419;-82
2022/11/11 08:29:09;;;;;;;8.95;5.40;;;;;;;;;;4952611;28;20035;-83
2022/11/11 08:31:35;;;;;;;10.48;5.10;;;;;;;;;;4951873;29;20031;-82
2022/11/11 08:34:00;;;;;;;9.73;5.03;;;;;;;;;;4953093;29;20503;-82
2022/11/11 08:36:26;;;;;;;10.00;5.18;;;;;;;;;;4962289;28;20019;-83
2022/11/11 08:38:51;;;;;;;10.77;4.70;;;;;;;;;;4952438;28;20058;-83
2022/11/11 08:41:17;;;;;;;8.60;4.95;;;;;;;;;;4949646;29;20023;-83
2022/11/11 08:43:42;;;;;;;10.85;5.07;;;;;;;;;;4950207;29;20075;-83
2022/11/11 08:46:08;;;;;;;10.60;4.90;;;;;;;;;;4948848;28;20044;-82
2022/11/11 08:48:33;;;;;;;7.05;4.38;;;;;;;;;;4952154;28;20085;-83
2022/11/11 08:50:59;;;;;;;8.85;4.60;;;;;;;;;;4948139;29;20027;-82
2022/11/11 08:53:25;;;;;;;7.43;4.65;;;;;;;;;;4968342;28;20030;-82
2022/11/11 08:55:50;;;;;;;8.82;5.22;;;;;;;;;;4947600;28;20502;-83
2022/11/11 08:58:16;;;;;;;8.20;4.80;;;;;;;;;;4966329;28;20027;-83
2022/11/11 09:00:41;;;;;;;9.23;5.13;;;;;;;;;;4963869;28;20063;-82
2022/11/11 09:03:10;;;;;;;10.13;6.05;;;;;;;;;;4949932;28;20086;-84
2022/11/11 09:05:38;;;;;;;9.55;5.40;;;;;;;;;;4966337;28;20027;-83
2022/11/11 09:08:06;;;;;;;7.47;4.43;;;;;;;;;;4951340;28;20039;-82
2022/11/11 09:10:32;;;;;;;10.63;4.70;;;;;;;;;;4968086;28;20019;-82
2022/11/11 09:12:58;;;;;;;9.68;4.30;;;;;;;;;;4950633;29;20484;-82
2022/11/11 09:15:25;;;;;;;8.05;4.40;;;;;;;;;;4952575;28;20472;-83
2022/11/11 09:17:51;;;;;;;8.65;5.25;;;;;;;;;;4952058;29;20046;-82
2022/11/11 09:20:17;;;;;;;11.02;5.10;;;;;;;;;;4952291;28;20039;-83
2022/11/11 09:22:44;;;;;;;8.52;4.90;;;;;;;;;;4952821;28;20110;-83
2022/11/11 09:25:10;;;;;;;7.88;4.53;;;;;;;;;;4948822;28;20031;-82
2022/11/11 09:27:35;;;;;;;9.07;5.00;;;;;;;;;;4950330;28;20436;-82
2022/11/11 09:30:01;;;;;;;8.32;5.00;;;;;;;;;;4952249;29;20022;-82
2022/11/11 09:32:27;;;;;;;8.52;5.18;;;;;;;;;;4965372;28;20041;-83
2022/11/11 09:34:54;;;;;;;10.18;5.18;;;;;;;;;;4950618;28;20059;-82
2022/11/11 09:37:19;;;;;;;8.48;5.13;;;;;;;;;;4966063;28;20435;-82
2022/11/11 09:39:45;;;;;;;8.75;5.10;;;;;;;;;;4952964;29;20031;-82
2022/11/11 09:42:41;;;;;;;11.82;5.35;;;;;;;;;;4947524;28;20031;-83
2022/11/11 09:45:24;;;;;;;11.00;5.22;;;;;;;;;;4952068;28;20023;-82
2022/11/11 09:48:20;;;;;;;8.68;4.93;;;;;;;;;;4965691;28;20500;-83
2022/11/11 09:50:53;;;;;;;9.05;4.97;;;;;;;;;;4965725;28;20043;-83
2022/11/11 09:53:37;;;;;;;10.07;5.43;;;;;;;;;;4952865;29;20027;-82
2022/11/11 09:56:08;;;;;;;8.25;5.22;;;;;;;;;;4964589;28;20035;-83
2022/11/11 09:58:49;;;;;;;9.50;5.20;;;;;;;;;;4966722;28;20407;-82
2022/11/11 10:01:25;;;;;;;9.45;5.03;;;;;;;;;;4947210;29;20032;-82
2022/11/11 10:04:05;;;;;;;9.55;5.35;;;;;;;;;;4950631;28;20035;-83
2022/11/11 10:06:33;;;;;;;10.52;5.07;;;;;;;;;;4967064;28;20042;-82
2022/11/11 10:09:03;;;;;;;10.90;5.53;;;;;;;;;;4955116;28;20510;-82
2022/11/11 10:12:02;;;;;;;11.50;5.68;;;;;;;;;;4968169;28;20035;-82
2022/11/11 10:14:37;;;;;;;9.13;4.78;;;;;;;;;;4947585;28;20559;-82
2022/11/11 10:17:30;;;;;;;8.32;5.10;;;;;;;;;;4950941;28;20114;-82
2022/11/11 10:20:09;;;;;;;9.25;5.53;;;;;;;;;;4954574;28;20510;-83
2022/11/11 10:22:39;;;;;;;9.20;4.90;;;;;;;;;;4955165;28;20067;-83
2022/11/11 10:25:10;;;;;;;9.15;4.78;;;;;;;;;;4956176;29;20535;-82
2022/11/11 10:27:41;;;;;;;9.95;5.60;;;;;;;;;;4960544;28;20031;-83
2022/11/11 10:30:19;;;;;;;12.55;5.82;;;;;;;;;;4957174;28;20023;-83
2022/11/11 10:32:52;;;;;;;10.05;5.10;;;;;;;;;;4952526;29;20042;-82
2022/11/11 10:35:19;;;;;;;;;;;;;;;;;;4954427;28;20023;-82
2022/11/11 10:37:45;;;;;;;9.00;5.22;;;;;;;;;;4954987;28;19910;-82
2022/11/11 10:40:32;;;;;;;8.10;5.05;;;;;;;;;;4951887;28;20032;-83
2022/11/11 10:42:57;;;;;;;8.95;5.25;;;;;;;;;;4973247;28;20100;-82
2022/11/11 10:45:32;;;;;;;10.73;5.45;;;;;;;;;;4955658;29;20464;-82
2022/11/11 10:48:03;;;;;;;10.10;4.88;;;;;;;;;;4950782;29;20047;-82
2022/11/11 10:50:35;;;;;;;11.32;5.95;;;;;;;;;;4953354;29;20038;-82
2022/11/11 10:53:21;;;;;;;10.18;5.30;;;;;;;;;;4953693;29;20030;-82
2022/11/11 10:56:05;;;;;;;8.70;5.20;;;;;;;;;;4949538;28;20392;-83
2022/11/11 10:58:46;;;;;;;9.25;5.60;;;;;;;;;;4957720;28;20456;-82
2022/11/11 11:01:19;;;;;;;9.60;5.10;;;;;;;;;;4970142;28;20388;-82
2022/11/11 11:04:24;;;;;;;10.18;5.82;;;;;;;;;;4953728;28;20062;-82
2022/11/11 11:06:53;;;;;;;9.15;5.20;;;;;;;;;;4966636;28;20252;-83
2022/11/11 11:09:30;;;;;;;9.40;5.00;;;;;;;;;;4952207;28;20424;-82
2022/11/11 11:12:01;;;;;;;10.15;5.45;;;;;;;;;;4952306;29;20027;-82
2022/11/11 11:14:38;;;;;;;9.85;5.38;;;;;;;;;;4967249;28;20573;-82
2022/11/11 11:17:12;;;;;;;8.55;4.78;;;;;;;;;;4953540;29;20031;-83
2022/11/11 11:19:38;;;;;;;8.88;4.85;;;;;;;;;;4949845;29;20396;-82
2022/11/11 11:22:03;;;;;;;9.43;5.60;;;;;;;;;;4967824;28;20035;-82
2022/11/11 11:24:35;;;;;;;11.00;5.50;;;;;;;;;;4945352;28;20027;-82
2022/11/11 11:27:05;;;;;;;11.63;5.50;;;;;;;;;;4951865;29;20039;-83
2022/11/11 11:29:41;;;;;;;9.50;5.15;;;;;;;;;;4946391;28;20075;-83
2022/11/11 11:32:12;;;;;;;10.38;5.88;;;;;;;;;;4963391;28;20025;-82
2022/11/11 11:34:52;;;;;;;8.07;5.53;;;;;;;;;;4959983;28;20106;-83
2022/11/11 11:37:20;;;;;;;9.20;5.53;;;;;;;;;;4953825;28;20027;-83
2022/11/11 11:39:46;;;;;;;8.60;5.57;;;;;;;;;;4968111;28;20038;-82
2022/11/11 11:42:34;;;;;;;10.30;5.45;;;;;;;;;;4954958;28;20476;-82
2022/11/11 11:45:23;;;;;;;8.13;4.82;;;;;;;;;;4954386;28;20023;-82
2022/11/11 11:48:08;;;;;;;9.88;5.40;;;;;;;;;;4953029;28;20027;-82
2022/11/11 11:50:36;;;;;;;8.77;5.20;;;;;;;;;;4949358;29;20106;-83
2022/11/11 11:53:36;;;;;;;9.63;5.35;;;;;;;;;;4968582;28;20066;-83
2022/11/11 11:56:12;;;;;;;8.52;5.10;;;;;;;;;;4961415;28;20026;-83
2022/11/11 11:58:52;;;;;;;9.32;5.32;;;;;;;;;;4947175;28;20035;-83
2022/11/11 12:01:28;;;;;;;7.55;4.38;;;;;;;;;;4964159;28;20512;-83
2022/11/11 12:04:08;;;;;;;8.65;4.93;;;;;;;;;;4956764;28;20070;-82
2022/11/11 12:07:01;;;;;;;8.50;4.78;;;;;;;;;;4968735;28;20030;-83
2022/11/11 12:09:42;;;;;;;8.40;4.43;;;;;;;;;;4963803;28;20095;-82
2022/11/11 12:12:19;;;;;;;7.70;4.45;;;;;;;;;;4955283;28;20039;-83
2022/11/11 12:14:52;;;;;;;8.40;4.60;;;;;;;;;;4956939;28;20059;-82
2022/11/11 12:17:36;;;;;;;9.13;4.60;;;;;;;;;;4950643;28;20023;-82
2022/11/11 12:20:17;;;;;;;9.70;4.97;;;;;;;;;;4952436;29;20126;-83
2022/11/11 12:23:09;;;;;;;8.43;4.63;;;;;;;;;;4950051;28;20031;-82
2022/11/11 12:25:41;;;;;;;7.85;4.32;;;;;;;;;;4968704;28;20034;-83
2022/11/11 12:28:12;;;;;;;7.38;4.28;;;;;;;;;;4969816;28;20035;-82
2022/11/11 12:30:46;;;;;;;9.23;4.05;;;;;;;;;;4964170;28;20420;-83
2022/11/11 12:33:56;;;;;;;8.30;4.15;;;;;;;;;;4963647;28;20051;-83
2022/11/11 12:36:21;;;;;;;6.88;4.03;;;;;;;;;;4969593;28;20027;-83
2022/11/11 12:38:55;;;;;;;6.63;3.28;;;;;;;;;;4969030;28;20488;-83
2022/11/11 12:41:41;;;;;;;8.25;3.63;;;;;;;;;;4969701;28;20066;-83
2022/11/11 12:44:10;;;;;;;6.22;3.47;;;;;;;;;;4952003;28;20054;-82
2022/11/11 12:46:38;;;;;;;6.40;3.70;;;;;;;;;;4952242;28;20035;-83
2022/11/11 12:49:39;;;;;;;8.77;4.20;;;;;;;;;;4966580;28;20035;-83
2022/11/11 12:52:13;;;;;;;6.78;3.70;;;;;;;;;;4954030;28;20062;-82
2022/11/11 12:54:50;;;;;;;7.28;3.38;;;;;;;;;;4956892;28;20546;-82
2022/11/11 12:57:37;;;;;;;7.32;3.63;;;;;;;;;;4954817;28;20049;-83
2022/11/11 13:00:08;;;;;;;6.93;3.97;;;;;;;;;;4955231;28;20050;-83
2022/11/11 13:03:04;;;;;;;7.40;3.95;;;;;;;;;;4951368;28;20033;-83
2022/11/11 13:05:57;;;;;;;6.57;3.47;;;;;;;;;;4949473;28;20399;-83
2022/11/11 13:08:28;;;;;;;7.00;3.35;;;;;;;;;;4969222;28;20599;-83
2022/11/11 13:11:19;;;;;;;6.25;3.15;;;;;;;;;;4968447;28;20117;-83
2022/11/11 13:13:51;;;;;;;5.80;2.60;;;;;;;;;;4933464;29;20043;-83
2022/11/11 13:16:21;;;;;;;5.97;2.60;;;;;;;;;;4967223;28;20550;-82
2022/11/11 13:19:18;;;;;;;4.82;2.72;;;;;;;;;;4951634;28;20121;-82
2022/11/11 13:21:51;;;;;;;5.90;2.97;;;;;;;;;;4949494;29;20122;-83
2022/11/11 13:24:19;;;;;;;;;;;;;;;;;;4952734;28;20364;-83
2022/11/11 13:27:00;;;;;;;5.22;2.70;;;;;;;;;;4957403;28;19918;-83
2022/11/11 13:29:34;;;;;;;5.60;2.70;;;;;;;;;;4952168;29;20369;-82
2022/11/11 13:32:04;;;;;;;7.07;3.08;;;;;;;;;;4951334;28;20430;-83
2022/11/11 13:34:33;;;;;;;5.20;2.88;;;;;;;;;;4952660;28;20071;-83
2022/11/11 13:37:02;;;;;;;4.95;2.60;;;;;;;;;;4952148;28;20035;-83
2022/11/11 13:39:42;;;;;;;5.68;3.03;;;;;;;;;;4962212;28;20038;-83
2022/11/11 13:42:12;;;;;;;4.50;2.35;;;;;;;;;;4955024;28;20019;-84
2022/11/11 13:44:53;;;;;;;6.90;2.40;;;;;;;;;;4951449;29;20035;-83
2022/11/11 13:47:23;;;;;;;3.83;2.40;;;;;;;;;;4953427;28;20124;-83
2022/11/11 13:49:57;;;;;;;4.20;2.30;;;;;;;;;;4954683;28;20091;-83
2022/11/11 13:52:39;;;;;;;4.57;2.58;;;;;;;;;;4954958;28;20027;-83
2022/11/11 13:55:19;;;;;;;5.38;2.15;;;;;;;;;;4955118;28;20031;-83
2022/11/11 13:57:51;;;;;;;4.18;2.30;;;;;;;;;;4971389;28;20023;-83
2022/11/11 14:00:16;;;;;;;5.07;2.30;;;;;;;;;;4955161;29;20027;-83
2022/11/11 14:02:42;;;;;;;4.47;2.63;;;;;;;;;;4968391;28;20039;-83
2022/11/11 14:05:08;;;;;;;5.70;2.47;;;;;;;;;;4955607;28;20031;-83
2022/11/11 14:07:48;;;;;;;6.28;2.40;;;;;;;;;;4970808;28;20027;-83
2022/11/11 14:10:17;;;;;;;4.68;2.60;;;;;;;;;;4935699;28;1069403;-83
2022/11/11 14:12:56;;;;;;;4.40;2.20;;;;;;;;;;4951742;28;20110;-83
2022/11/11 14:15:35;;;;;;;4.65;2.40;;;;;;;;;;4955749;28;20479;-83
2022/11/11 14:18:03;;;;;;;4.50;2.50;;;;;;;;;;4955450;28;20058;-83
2022/11/11 14:20:28;;;;;;;4.65;2.55;;;;;;;;;;4956078;29;20026;-83
2022/11/11 14:23:14;;;;;;;4.88;2.30;;;;;;;;;;4956165;28;20035;-83
2022/11/11 14:25:39;;;;;;;3.83;2.38;;;;;;;;;;4957335;28;20472;-83
2022/11/11 14:28:28;;;;;;;4.78;2.13;;;;;;;;;;4957183;28;20027;-83
2022/11/11 14:30:57;;;;;;;4.55;2.20;;;;;;;;;;4952279;29;20027;-83
2022/11/11 14:33:51;;;;;;;3.88;1.90;;;;;;;;;;4970256;28;20031;-83
2022/11/11 14:36:40;;;;;;;3.38;1.80;;;;;;;;;;4956505;28;20114;-83
2022/11/11 14:39:38;;;;;;;3.25;1.60;;;;;;;;;;4955466;28;20042;-83
2022/11/11 14:42:04;;;;;;;4.97;1.90;;;;;;;;;;4952046;28;20034;-83
2022/11/11 14:44:32;;;;;;;2.63;1.60;;;;;;;;;;4956763;29;20359;-83
2022/11/11 14:47:01;;;;;;;2.92;1.30;;;;;;;;;;4968260;28;20685;-83
2022/11/11 14:49:51;;;;;;;3.08;1.52;;;;;;;;;;4971865;28;20033;-83
2022/11/11 14:52:34;;;;;;;2.90;1.45;;;;;;;;;;4970830;28;20031;-83
2022/11/11 14:55:29;;;;;;;4.15;1.48;;;;;;;;;;4955059;28;20031;-83
2022/11/11 14:58:07;;;;;;;3.90;1.58;;;;;;;;;;4971165;28;20063;-83
2022/11/11 15:00:59;;;;;;;2.90;1.42;;;;;;;;;;4946978;28;20059;-83
2022/11/11 15:03:30;;;;;;;3.83;1.50;;;;;;;;;;4961690;28;20125;-83
2022/11/11 15:06:17;;;;;;;2.53;1.23;;;;;;;;;;4952926;28;20034;-83
2022/11/11 15:09:13;;;;;;;4.65;1.55;;;;;;;;;;4954847;28;20051;-83
2022/11/11 15:12:02;;;;;;;2.40;1.20;;;;;;;;;;4974517;28;20122;-83
2022/11/11 15:14:56;;;;;;;2.70;1.30;;;;;;;;;;4954617;29;20407;-83
2022/11/11 15:17:29;;;;;;;2.35;1.10;;;;;;;;;;4951836;28;20109;-83
2022/11/11 15:20:24;;;;;;;2.60;1.40;;;;;;;;;;4966844;28;20031;-83
2022/11/11 15:23:01;;;;;;;2.50;1.33;;;;;;;;;;4969025;28;20443;-83
2022/11/11 15:25:45;;;;;;;2.35;1.40;;;;;;;;;;4950233;28;20663;-82
2022/11/11 15:28:34;;;;;;;3.45;1.30;;;;;;;;;;4952983;28;20042;-82
2022/11/11 15:31:27;;;;;;;2.38;1.45;;;;;;;;;;4961886;28;20163;-83
2022/11/11 15:34:21;;;;;;;3.22;1.70;;;;;;;;;;4949655;28;20031;-83
2022/11/11 15:37:08;;;;;;;3.30;1.50;;;;;;;;;;4962128;28;20487;-83
2022/11/11 15:39:52;;;;;;;2.50;1.60;;;;;;;;;;4951243;28;20492;-83
2022/11/11 15:42:38;;;;;;;3.65;1.70;;;;;;;;;;4964762;28;20397;-83
2022/11/11 15:45:16;;;;;;;2.85;1.60;;;;;;;;;;4951607;28;20109;-83
2022/11/11 15:47:41;;;;;;;4.43;1.75;;;;;;;;;;4969233;28;20035;-83
2022/11/11 15:50:22;;;;;;;4.18;1.75;;;;;;;;;;4951874;28;20031;-82
2022/11/11 15:52:54;;;;;;;4.13;2.03;;;;;;;;;;4966611;28;20495;-82
2022/11/11 15:55:24;;;;;;;3.08;1.63;;;;;;;;;;4949153;28;20031;-82
2022/11/11 15:57:49;;;;;;;4.10;1.90;;;;;;;;;;4957552;28;20395;-82
2022/11/11 16:00:24;;;;;;;6.10;2.40;;;;;;;;;;4948458;28;20028;-82
2022/11/11 16:02:52;;;;;;;5.55;2.30;;;;;;;;;;4946313;28;20507;-83
2022/11/11 16:05:23;;;;;;;6.00;3.38;;;;;;;;;;4946676;28;20030;-82
2022/11/11 16:07:51;;;;;;;4.63;2.50;;;;;;;;;;4950666;28;20031;-81
2022/11/11 16:10:36;;;;;;;5.90;2.85;;;;;;;;;;4946412;28;20492;-83
2022/11/11 16:13:34;;;;;;;6.22;3.40;;;;;;;;;;4948122;28;20361;-82
2022/11/11 16:16:07;;;;;;;4.85;2.78;;;;;;;;;;4949534;28;20483;-82